Time;durP1;ratioP1;P1;durP2;ratioP2;P2;SDS_P1;SDS_P2;PMS_P1;PMS_P2;Temp;Humidity;BMP_temperature;BMP_pressure;BME280_temperature;BME280_humidity;BME280_pressure;Samples;Min_cycle;Max_cycle;Signal;HPM_P1;HPM_P2
2023/12/30 00:02:10;;;;;;;3.27;3.07;;;6.10;99.90;;;6.82;92.83;97815.41;10482867;28;20227;-66
2023/12/30 00:07:13;;;;;;;3.40;3.20;;;6.20;99.90;;;6.98;93.49;97818.22;10484276;28;20319;-66
2023/12/30 00:12:17;;;;;;;3.63;3.23;;;6.40;99.90;;;7.11;93.16;97825.06;10489356;28;20224;-66
2023/12/30 00:17:21;;;;;;;3.00;2.67;;;6.50;99.90;;;7.35;92.40;97831.81;10490271;28;20228;-66
2023/12/30 00:22:24;;;;;;;3.30;3.00;;;6.70;99.90;;;7.40;92.24;97825.41;10488758;28;20220;-67
2023/12/30 00:27:27;;;;;;;3.63;3.33;;;6.80;99.90;;;7.58;92.19;97820.69;10496290;28;20223;-65
2023/12/30 00:32:33;;;;;;;3.47;3.20;;;6.90;99.90;;;7.76;91.40;97805.78;10429290;28;21024;-66
2023/12/30 00:37:36;;;;;;;3.57;3.30;;;7.10;99.90;;;7.71;91.66;97798.63;10491859;28;20220;-66
2023/12/30 00:42:39;;;;;;;3.60;3.30;;;7.10;99.90;;;7.63;92.07;97793.88;10489811;28;20232;-65
2023/12/30 00:47:44;;;;;;;3.70;3.43;;;7.00;99.90;;;7.66;91.32;97783.03;10495501;28;20659;-66
2023/12/30 00:52:47;;;;;;;3.47;3.27;;;7.10;99.90;;;7.79;91.45;97780.56;10493510;28;20235;-66
2023/12/30 00:57:50;;;;;;;3.50;3.20;;;7.20;99.90;;;8.01;90.62;97781.94;10491984;28;20234;-66
2023/12/30 01:02:56;;;;;;;3.30;3.10;;;7.30;99.90;;;8.15;90.64;97782.84;10487528;28;20240;-66
2023/12/30 01:08:00;;;;;;;3.37;3.17;;;7.40;99.90;;;8.39;90.29;97779.38;10455735;28;20231;-66
2023/12/30 01:13:05;;;;;;;3.37;3.13;;;7.70;99.90;;;8.57;89.34;97788.19;10471661;28;20221;-66
2023/12/30 01:18:09;;;;;;;3.27;3.03;;;7.90;99.90;;;8.68;88.83;97796.50;10488603;28;20231;-66
2023/12/30 01:23:12;;;;;;;4.47;3.13;;;8.10;99.90;;;8.48;90.46;97792.69;10438496;28;20230;-67
2023/12/30 01:28:16;;;;;;;3.60;3.30;;;8.00;99.90;;;8.43;91.62;97799.16;10477815;28;20224;-66
2023/12/30 01:33:20;;;;;;;3.00;2.80;;;7.90;99.90;;;8.48;91.59;97807.09;10470759;28;21108;-67
2023/12/30 01:38:23;;;;;;;3.30;3.10;;;8.00;99.90;;;8.46;91.80;97809.53;10448182;28;20239;-67
2023/12/30 01:43:29;;;;;;;3.20;2.90;;;7.90;99.90;;;8.50;92.21;97815.75;10499541;28;20256;-67
2023/12/30 01:48:34;;;;;;;3.03;2.80;;;7.90;99.90;;;8.59;90.94;97815.44;10453147;28;20214;-66
2023/12/30 01:53:42;;;;;;;3.63;3.17;;;7.90;99.90;;;8.74;89.81;97827.47;10439424;28;20607;-67
2023/12/30 01:58:46;;;;;;;3.10;2.90;;;7.90;99.90;;;8.68;90.13;97829.63;10464096;28;20240;-67
2023/12/30 02:03:51;;;;;;;3.13;2.80;;;8.00;99.90;;;8.63;90.40;97837.78;10467426;28;20280;-66
2023/12/30 02:08:54;;;;;;;3.23;3.03;;;8.00;99.90;;;8.67;91.23;97855.00;10445650;28;20734;-65
2023/12/30 02:13:58;;;;;;;2.93;2.73;;;8.00;99.90;;;8.70;91.05;97857.75;10450139;28;20320;-66
2023/12/30 02:19:02;;;;;;;3.38;3.17;;;8.00;99.90;;;8.62;92.57;97859.81;10459318;28;20308;-67
2023/12/30 02:24:07;;;;;;;3.83;3.53;;;7.90;99.90;;;8.59;93.95;97861.31;10480547;28;20225;-66
2023/12/30 02:29:10;;;;;;;3.40;3.20;;;7.90;99.90;;;8.74;93.12;97862.28;10462216;28;20307;-66
2023/12/30 02:34:15;;;;;;;3.90;3.60;;;8.00;99.90;;;8.57;93.21;97859.50;10456469;28;20724;-66
2023/12/30 02:39:20;;;;;;;3.73;3.43;;;7.90;99.90;;;8.46;93.95;97850.28;10445175;28;20234;-67
2023/12/30 02:44:24;;;;;;;3.90;3.60;;;7.80;99.90;;;8.43;94.53;97865.38;10450303;28;20224;-67
2023/12/30 02:49:29;;;;;;;3.53;3.17;;;7.80;99.90;;;8.44;95.01;97862.06;10459437;28;20234;-66
2023/12/30 02:54:35;;;;;;;3.40;3.20;;;7.70;99.90;;;8.33;94.72;97863.88;10456375;28;20233;-67
2023/12/30 02:59:38;;;;;;;3.53;3.30;;;7.70;99.90;;;8.24;95.81;97865.81;10472163;28;20777;-67
2023/12/30 03:04:41;;;;;;;3.92;3.53;;;7.70;99.90;;;8.30;95.55;97878.06;10416102;28;20244;-66
2023/12/30 03:09:46;;;;;;;3.80;3.37;;;7.80;99.90;;;8.36;95.58;97878.47;10417117;28;20230;-67
2023/12/30 03:14:49;;;;;;;3.20;2.90;;;7.80;99.90;;;8.40;95.14;97890.66;10410918;28;20233;-67
2023/12/30 03:19:52;;;;;;;3.20;2.90;;;7.80;99.90;;;8.37;94.66;97900.59;10416234;28;20325;-66
2023/12/30 03:24:58;;;;;;;4.00;3.23;;;7.90;99.90;;;8.46;94.03;97896.13;10414047;28;20225;-67
2023/12/30 03:30:01;;;;;;;3.20;3.00;;;7.90;99.90;;;8.45;93.78;97906.25;10478860;28;20241;-64
2023/12/30 03:35:06;;;;;;;3.30;3.10;;;7.90;99.90;;;8.46;93.59;97897.81;10412280;28;20275;-65
2023/12/30 03:40:12;;;;;;;3.37;3.10;;;7.90;99.90;;;8.47;93.91;97897.94;10413010;28;20236;-66
2023/12/30 03:45:16;;;;;;;3.73;3.40;;;7.90;99.90;;;8.48;94.06;97907.31;10419530;28;20600;-65
2023/12/30 03:50:19;;;;;;;3.73;3.07;;;7.90;99.90;;;8.62;92.99;97903.13;10479850;28;20312;-66
2023/12/30 03:55:23;;;;;;;2.97;2.77;;;7.90;99.90;;;8.56;93.77;97913.81;10491323;28;20242;-66
2023/12/30 04:00:26;;;;;;;3.23;2.93;;;7.90;99.90;;;8.61;93.32;97916.63;10416115;28;20714;-66
2023/12/30 04:05:30;;;;;;;3.47;3.03;;;8.00;99.90;;;8.66;93.36;97919.50;10410489;28;20229;-65
2023/12/30 04:10:35;;;;;;;3.07;2.77;;;8.00;99.90;;;8.61;93.25;97915.75;10412265;28;20257;-66
2023/12/30 04:15:38;;;;;;;2.67;2.47;;;8.00;99.90;;;8.69;93.74;97909.50;10408984;28;20237;-66
2023/12/30 04:20:41;;;;;;;2.73;2.53;;;8.10;99.90;;;8.80;93.06;97919.59;10410447;28;20231;-66
2023/12/30 04:25:46;;;;;;;4.03;2.70;;;8.10;99.90;;;8.84;92.86;97914.69;10412705;28;20296;-66
2023/12/30 04:30:49;;;;;;;3.13;2.93;;;8.20;99.90;;;8.62;94.80;97908.22;10409517;28;20244;-66
2023/12/30 04:35:52;;;;;;;2.70;2.50;;;8.10;99.90;;;8.74;95.35;97918.34;10408816;28;20257;-67
2023/12/30 04:40:57;;;;;;;3.30;3.00;;;8.10;99.90;;;8.68;95.25;97928.13;10412791;28;21880;-67
2023/12/30 04:46:00;;;;;;;2.50;2.30;;;8.10;99.90;;;8.65;96.12;97920.28;10473963;28;20244;-67
2023/12/30 04:51:03;;;;;;;4.13;2.90;;;8.10;99.90;;;8.59;97.01;97930.09;10457700;28;20233;-67
2023/12/30 04:56:08;;;;;;;3.07;2.73;;;8.10;99.90;;;8.48;98.79;97935.34;10475119;28;20814;-67
2023/12/30 05:01:12;;;;;;;3.53;2.90;;;8.00;99.90;;;8.54;99.40;97928.09;10491927;28;20805;-66
2023/12/30 05:06:25;;;;;;;2.80;2.60;;;7.90;99.90;;;8.66;99.24;97939.88;10426956;28;20233;-67
2023/12/30 05:11:30;;;;;;;2.58;2.38;;;8.00;99.90;;;8.66;98.80;97935.66;10415792;28;20313;-67
2023/12/30 05:16:33;;;;;;;2.83;2.53;;;8.00;99.90;;;8.48;100.00;97934.47;10465290;28;20227;-67
2023/12/30 05:21:36;;;;;;;2.47;2.37;;;7.90;99.90;;;8.33;100.00;97944.50;10498262;28;20223;-67
2023/12/30 05:26:42;;;;;;;3.30;2.90;;;7.80;99.90;;;8.23;100.00;97937.00;10500448;28;20397;-66
2023/12/30 05:31:45;;;;;;;2.83;2.60;;;7.70;99.90;;;8.24;100.00;97943.84;10470223;28;20231;-64
2023/12/30 05:36:49;;;;;;;2.53;2.10;;;7.70;99.90;;;8.29;100.00;97937.41;10498252;28;20227;-65
2023/12/30 05:41:53;;;;;;;3.00;2.53;;;7.70;99.90;;;8.30;100.00;97946.81;10501818;28;20235;-65
2023/12/30 05:46:56;;;;;;;3.00;2.80;;;7.70;99.90;;;8.25;100.00;97951.59;10485696;28;20244;-65
2023/12/30 05:51:59;;;;;;;2.50;2.27;;;7.70;99.90;;;8.16;100.00;97951.00;10479879;28;20646;-66
2023/12/30 05:57:04;;;;;;;2.63;2.43;;;7.60;99.90;;;8.25;100.00;97946.50;10500926;28;20228;-66
2023/12/30 06:02:07;;;;;;;2.87;2.47;;;7.70;99.90;;;8.29;100.00;97955.22;10463968;28;20224;-65
2023/12/30 06:07:11;;;;;;;2.60;1.87;;;7.70;99.90;;;8.40;99.05;97954.31;10444538;28;20593;-65
2023/12/30 06:12:15;;;;;;;2.83;2.60;;;7.90;99.90;;;8.35;98.80;97943.81;10485225;28;20217;-66
2023/12/30 06:17:18;;;;;;;2.57;2.37;;;7.90;99.90;;;8.43;99.33;97938.38;10505192;28;20343;-65
2023/12/30 06:22:21;;;;;;;1.97;1.87;;;7.90;99.90;;;8.43;98.57;97953.66;10443582;28;20316;-66
2023/12/30 06:27:26;;;;;;;3.33;1.93;;;7.90;99.90;;;8.56;98.34;97951.13;10458925;28;20277;-65
2023/12/30 06:32:29;;;;;;;1.80;1.70;;;8.00;99.90;;;8.59;98.47;97958.09;10460077;28;20597;-65
2023/12/30 06:37:32;;;;;;;2.20;1.80;;;8.00;99.90;;;8.70;98.13;97958.03;10419744;28;20632;-65
2023/12/30 06:42:37;;;;;;;2.70;2.10;;;8.10;99.90;;;8.79;97.91;97953.53;10418805;28;20228;-65
2023/12/30 06:47:41;;;;;;;2.00;1.90;;;8.20;99.90;;;8.77;98.68;97967.81;10417904;28;20224;-66
2023/12/30 06:52:44;;;;;;;2.43;2.10;;;8.20;99.90;;;8.80;99.19;97967.16;10427785;28;20584;-65
2023/12/30 06:57:49;;;;;;;2.60;1.80;;;8.20;99.90;;;8.97;98.99;97973.34;10501474;28;20236;-65
2023/12/30 07:02:52;;;;;;;2.00;1.70;;;8.30;99.90;;;9.03;97.89;97977.16;10480145;28;20225;-66
2023/12/30 07:07:55;;;;;;;2.10;2.00;;;8.30;99.90;;;9.01;98.58;97983.84;10416391;28;20237;-66
2023/12/30 07:13:00;;;;;;;1.90;1.80;;;8.40;99.90;;;8.93;99.12;97987.56;10468777;28;20220;-67
2023/12/30 07:18:04;;;;;;;1.90;1.80;;;8.30;99.90;;;9.04;98.94;97990.78;10443019;28;20256;-67
2023/12/30 07:23:08;;;;;;;2.10;1.73;;;8.40;99.90;;;8.90;99.80;97995.00;10417649;28;20236;-67
2023/12/30 07:28:12;;;;;;;2.88;1.95;;;8.30;99.90;;;8.90;100.00;98015.41;10481802;28;20251;-67
2023/12/30 07:33:15;;;;;;;2.20;1.97;;;8.30;99.90;;;8.89;100.00;98017.84;10437001;28;20230;-67
2023/12/30 07:38:19;;;;;;;2.33;2.03;;;8.30;99.90;;;8.87;100.00;98014.28;10480191;28;20250;-66
2023/12/30 07:43:24;;;;;;;2.28;2.08;;;8.20;99.90;;;8.94;100.00;98013.94;10502012;28;20246;-67
2023/12/30 07:48:29;;;;;;;2.17;2.00;;;8.30;99.90;;;8.99;100.00;98022.78;10502048;28;20223;-66
2023/12/30 07:53:32;;;;;;;2.10;2.00;;;8.30;99.90;;;8.90;100.00;98015.41;10496173;28;20265;-66
2023/12/30 07:58:37;;;;;;;2.25;2.15;;;8.30;99.90;;;8.92;100.00;98025.69;10498594;28;20232;-66
2023/12/30 08:03:41;;;;;;;1.98;1.85;;;8.30;99.90;;;8.97;100.00;98009.91;10467025;28;20306;-67
2023/12/30 08:08:44;;;;;;;2.38;2.28;;;8.40;99.90;;;9.18;100.00;98010.41;10487322;28;20232;-65
2023/12/30 08:13:48;;;;;;;2.60;2.40;;;8.50;99.90;;;9.16;100.00;98012.00;10434312;28;20253;-65
2023/12/30 08:18:52;;;;;;;3.03;1.77;;;8.50;99.90;;;9.29;100.00;97998.38;10469903;28;20239;-65
2023/12/30 08:23:56;;;;;;;2.08;1.98;;;8.60;99.90;;;9.49;99.52;98014.94;10431609;28;20220;-65
2023/12/30 08:29:01;;;;;;;2.65;2.03;;;8.80;99.90;;;9.45;100.00;98016.41;10418365;28;20221;-67
2023/12/30 08:34:04;;;;;;;2.78;2.58;;;8.90;99.90;;;9.69;100.00;98027.28;10412439;28;20229;-66
2023/12/30 08:39:08;;;;;;;2.67;2.47;;;9.10;99.90;;;9.68;100.00;98030.63;10413535;28;20248;-65
2023/12/30 08:44:12;;;;;;;2.65;2.45;;;9.00;99.90;;;9.77;99.35;98030.31;10484292;28;20219;-65
2023/12/30 08:49:15;;;;;;;3.65;2.30;;;9.00;99.90;;;9.84;97.44;98031.59;10470719;28;20227;-66
2023/12/30 08:54:18;;;;;;;2.38;2.28;;;9.00;99.90;;;9.67;99.86;98033.97;10443895;28;20273;-65
2023/12/30 08:59:25;;;;;;;2.03;1.88;;;9.00;99.90;;;9.91;96.90;98039.72;10437033;28;20289;-65
2023/12/30 09:04:28;;;;;;;4.03;2.00;;;9.20;99.90;;;9.70;98.79;98038.41;10456507;28;20611;-66
2023/12/30 09:09:32;;;;;;;2.65;2.10;;;9.10;99.90;;;9.63;100.00;98046.44;10475445;28;20236;-66
2023/12/30 09:14:36;;;;;;;2.75;2.55;;;9.00;99.90;;;9.75;99.46;98048.88;10479385;28;20225;-67
2023/12/30 09:19:40;;;;;;;3.00;2.40;;;9.10;99.90;;;9.77;100.00;98048.19;10451904;28;20236;-66
2023/12/30 09:24:45;;;;;;;2.42;2.25;;;9.10;99.90;;;9.84;99.74;98057.13;10427946;28;20229;-65
2023/12/30 09:29:49;;;;;;;4.47;2.90;;;9.10;99.90;;;9.95;98.29;98051.00;10458631;28;20233;-65
2023/12/30 09:34:53;;;;;;;3.65;2.53;;;9.20;99.90;;;10.08;97.92;98062.88;10474921;28;20227;-65
2023/12/30 09:39:57;;;;;;;2.67;2.50;;;9.30;99.90;;;10.04;97.44;98066.91;10482979;28;20231;-66
2023/12/30 09:45:03;;;;;;;3.00;2.80;;;9.30;99.90;;;10.32;94.69;98060.97;10480905;28;20292;-65
2023/12/30 09:50:07;;;;;;;3.75;2.80;;;9.50;99.90;;;10.38;94.15;98058.78;10473358;28;20301;-67
2023/12/30 09:55:11;;;;;;;3.58;3.03;;;9.60;99.90;;;10.35;94.25;98059.50;10488579;28;20263;-66
2023/12/30 10:00:17;;;;;;;3.53;2.85;;;9.60;99.90;;;10.23;94.88;98066.38;10479031;28;20820;-66
2023/12/30 10:05:21;;;;;;;3.67;3.38;;;9.50;99.90;;;10.22;94.61;98066.31;10486699;28;20223;-66
2023/12/30 10:10:37;;;;;;;5.47;5.03;;;9.50;99.90;;;10.35;94.41;98064.59;10461277;28;20730;-65
2023/12/30 10:15:43;;;;;;;3.80;3.50;;;9.60;99.90;;;10.37;95.09;98065.59;10464565;28;20586;-66
2023/12/30 10:20:47;;;;;;;3.55;2.92;;;9.60;99.90;;;10.58;93.41;98062.56;10413207;28;20329;-65
2023/12/30 10:25:51;;;;;;;437.83;261.13;;;9.80;99.90;;;11.01;90.44;98065.09;10472442;28;20227;-65
2023/12/30 10:31:02;;;;;;;24.45;18.42;;;10.10;99.90;;;11.03;89.82;98054.16;10490568;28;20228;-66
2023/12/30 10:36:07;;;;;;;4.88;4.43;;;10.20;99.90;;;11.25;87.76;98046.06;10460189;28;21513;-66
2023/12/30 10:41:11;;;;;;;17.58;13.98;;;10.40;99.90;;;11.24;86.24;98044.28;10487017;28;20608;-65
2023/12/30 10:46:19;;;;;;;2.83;2.60;;;10.40;99.90;;;11.14;84.78;98044.56;10448162;28;20225;-64
2023/12/30 10:51:26;;;;;;;3.75;3.13;;;10.20;99.90;;;11.14;83.79;98036.91;10457867;28;20235;-66
2023/12/30 10:56:32;;;;;;;4.60;4.20;;;10.20;99.90;;;11.03;83.52;98048.19;10436378;28;20733;-65
2023/12/30 11:01:37;;;;;;;2.22;2.13;;;10.20;99.90;;;10.96;81.78;98041.84;10479804;28;20269;-65
2023/12/30 11:06:49;;;;;;;2.70;2.50;;;10.10;99.90;;;10.93;81.22;98031.44;10468971;28;20758;-65
2023/12/30 11:11:54;;;;;;;2.50;2.30;;;10.10;99.90;;;10.87;82.44;98025.94;10447591;28;20232;-65
2023/12/30 11:16:58;;;;;;;1.90;1.80;;;10.10;99.90;;;10.88;81.71;98031.94;10472994;28;20227;-66
2023/12/30 11:22:03;;;;;;;1.88;1.77;;;10.20;99.90;;;11.15;79.74;98030.97;10469688;28;20228;-65
2023/12/30 11:27:07;;;;;;;2.03;1.92;;;10.40;99.90;;;11.37;77.18;98039.88;10449677;28;20316;-65
2023/12/30 11:32:19;;;;;;;1.48;1.38;;;10.60;99.90;;;11.70;72.40;98034.09;10462641;28;20247;-67
2023/12/30 11:37:22;;;;;;;1.95;1.30;;;10.90;99.90;;;11.77;71.74;98026.75;10450713;28;20250;-66
2023/12/30 11:42:25;;;;;;;1.95;1.65;;;10.90;99.90;;;11.71;72.79;98024.75;10454106;28;20263;-67
2023/12/30 11:47:47;;;;;;;1.67;1.58;;;10.80;99.90;;;11.63;70.32;98019.19;10453909;28;20233;-65
2023/12/30 11:52:50;;;;;;;1.77;1.67;;;10.90;99.90;;;11.45;70.51;98018.19;10470852;28;20227;-66
2023/12/30 11:57:53;;;;;;;1.73;1.63;;;10.60;99.90;;;11.58;69.44;98007.81;10487443;28;20679;-66
2023/12/30 12:02:58;;;;;;;2.10;1.90;;;10.80;99.90;;;11.44;69.58;98006.16;10483942;28;20228;-65
2023/12/30 12:08:02;;;;;;;1.73;1.63;;;10.60;99.90;;;11.32;70.05;97996.13;10492356;28;20232;-66
2023/12/30 12:13:09;;;;;;;3.75;1.75;;;10.50;99.90;;;11.21;70.87;97992.06;10486365;28;20225;-65
2023/12/30 12:18:14;;;;;;;3.80;2.17;;;10.60;99.90;;;11.35;70.22;97992.84;10485290;28;20568;-65
2023/12/30 12:23:17;;;;;;;2.60;2.28;;;10.50;99.90;;;11.54;68.76;97980.28;10442935;28;20329;-65
2023/12/30 12:28:23;;;;;;;2.30;2.20;;;11.10;99.90;;;11.81;68.09;97969.78;10470262;28;20291;-65
2023/12/30 12:33:28;;;;;;;1.88;1.63;;;11.20;99.90;;;12.07;67.49;97961.81;10457963;28;20732;-66
2023/12/30 12:38:31;;;;;;;1.88;1.77;;;11.60;99.90;;;12.18;65.55;97959.81;10433935;28;20225;-65
2023/12/30 12:43:34;;;;;;;1.60;1.40;;;11.60;99.90;;;12.28;65.39;97961.22;10480740;28;20224;-65
2023/12/30 12:48:39;;;;;;;1.60;1.50;;;11.60;99.90;;;12.06;64.96;97962.63;10462732;28;20228;-65
2023/12/30 12:53:42;;;;;;;1.45;1.35;;;11.40;99.90;;;12.09;66.47;97954.22;10456493;28;20229;-65
2023/12/30 12:58:46;;;;;;;2.42;1.50;;;11.40;99.90;;;12.10;65.31;97943.16;10459182;28;20236;-66
2023/12/30 13:03:50;;;;;;;1.83;1.73;;;11.30;99.90;;;12.14;65.58;97935.72;10451474;28;20802;-66
2023/12/30 13:08:56;;;;;;;2.10;1.60;;;11.30;99.90;;;12.05;66.66;97926.69;10465532;28;20288;-67
2023/12/30 13:13:59;;;;;;;1.90;1.75;;;11.30;99.90;;;12.06;67.00;97919.09;10464522;28;20627;-67
2023/12/30 13:19:04;;;;;;;1.58;1.42;;;11.40;99.90;;;12.14;65.63;97938.31;10466654;28;20637;-66
2023/12/30 13:24:09;;;;;;;1.60;1.50;;;11.50;99.90;;;12.03;66.14;97939.41;10454700;28;20229;-64
2023/12/30 13:29:13;;;;;;;1.55;1.30;;;11.30;99.90;;;11.89;65.01;97927.56;10457774;28;20229;-65
2023/12/30 13:34:18;;;;;;;1.30;1.20;;;11.30;99.90;;;11.96;65.47;97927.09;10484263;28;20255;-65
2023/12/30 13:39:22;;;;;;;1.95;1.55;;;11.30;99.90;;;12.05;65.17;97917.34;10473970;28;20224;-66
2023/12/30 13:44:25;;;;;;;1.50;1.40;;;11.40;99.90;;;11.93;65.68;97921.78;10479628;28;20228;-65
2023/12/30 13:49:59;;;;;;;1.20;1.20;;;11.30;99.90;;;11.81;66.64;97913.44;10467358;28;20354;-64
2023/12/30 13:55:04;;;;;;;1.95;1.60;;;11.10;99.90;;;11.69;66.61;97926.47;10472784;28;20229;-64
2023/12/30 14:00:10;;;;;;;1.83;1.60;;;11.00;99.90;;;11.57;67.60;97918.13;10473056;28;20731;-64
2023/12/30 14:05:18;;;;;;;1.70;1.60;;;10.90;99.90;;;11.53;69.03;97913.63;10484479;28;20311;-65
2023/12/30 14:10:25;;;;;;;2.40;1.80;;;10.80;99.90;;;11.51;68.56;97911.00;10475211;28;20556;-65
2023/12/30 14:15:28;;;;;;;1.77;1.63;;;10.80;99.90;;;11.53;69.51;97918.75;10482141;28;20314;-66
2023/12/30 14:20:33;;;;;;;1.73;1.63;;;10.80;99.90;;;11.49;69.97;97917.72;10498549;28;20331;-65
2023/12/30 14:25:37;;;;;;;5.20;3.22;;;10.80;99.90;;;11.45;70.30;97918.34;10495682;28;20216;-66
2023/12/30 14:30:40;;;;;;;2.00;1.88;;;10.70;99.90;;;11.43;70.49;97922.50;10471927;28;20743;-66
2023/12/30 14:35:45;;;;;;;3.55;2.88;;;10.70;99.90;;;11.37;71.28;97912.81;10467168;28;20232;-67
2023/12/30 14:40:48;;;;;;;4.80;4.00;;;10.60;99.90;;;11.32;71.98;97909.13;10473177;28;20281;-66
2023/12/30 14:45:52;;;;;;;2.33;2.10;;;10.50;99.90;;;11.30;72.25;97908.13;10483800;28;20221;-66
2023/12/30 14:50:56;;;;;;;4.28;3.75;;;10.50;99.90;;;11.23;73.33;97914.59;10470731;28;20316;-66
2023/12/30 14:56:00;;;;;;;21.67;15.63;;;10.40;99.90;;;11.15;73.85;97915.84;10486895;28;20294;-66
2023/12/30 15:01:05;;;;;;;53.97;35.83;;;10.30;99.90;;;11.05;73.89;97895.69;10465023;28;20766;-66
2023/12/30 15:06:12;;;;;;;3.67;3.38;;;10.30;99.90;;;10.95;72.98;97888.28;10479589;28;20227;-67
2023/12/30 15:11:15;;;;;;;3.30;3.00;;;10.20;99.90;;;10.99;74.83;97882.56;10457380;28;20654;-66
2023/12/30 15:16:18;;;;;;;2.88;2.67;;;10.20;99.90;;;10.89;74.20;97876.03;10490710;28;20254;-65
2023/12/30 15:21:23;;;;;;;4.97;4.47;;;10.10;99.90;;;10.80;75.50;97870.41;10470983;28;20235;-66
2023/12/30 15:26:26;;;;;;;6.03;5.07;;;10.00;99.90;;;10.62;76.36;97870.28;10470521;28;20542;-66
2023/12/30 15:31:30;;;;;;;6.32;5.63;;;9.80;99.90;;;10.42;77.53;97870.81;10490389;28;20303;-66
2023/12/30 15:36:35;;;;;;;6.50;5.90;;;9.50;99.90;;;10.20;77.24;97884.84;10470016;28;20290;-66
2023/12/30 15:41:38;;;;;;;6.45;5.93;;;9.30;99.90;;;9.98;79.07;97886.91;10456642;28;20235;-66
2023/12/30 15:46:41;;;;;;;5.80;5.07;;;9.00;99.90;;;9.81;79.16;97889.31;10478213;28;20320;-66
2023/12/30 15:51:46;;;;;;;4.97;4.57;;;9.00;99.90;;;9.76;82.55;97890.75;10459979;28;20256;-66
2023/12/30 15:56:51;;;;;;;6.97;6.57;;;8.90;99.90;;;9.69;81.77;97888.59;10486267;28;20294;-66
2023/12/30 16:01:55;;;;;;;5.70;5.28;;;8.80;99.90;;;9.65;82.72;97884.97;10462408;28;20316;-66
2023/12/30 16:06:59;;;;;;;5.53;4.13;;;8.80;99.90;;;9.55;83.45;97889.41;10448737;28;20220;-66
2023/12/30 16:12:03;;;;;;;4.28;3.97;;;8.70;99.90;;;9.51;84.52;97892.59;10467627;28;20579;-69
2023/12/30 16:17:07;;;;;;;5.30;4.80;;;8.70;99.90;;;9.50;84.89;97894.25;10480548;28;20648;-66
2023/12/30 16:22:12;;;;;;;5.35;4.78;;;8.70;99.90;;;9.40;85.29;97887.69;10493765;28;20260;-66
2023/12/30 16:27:15;;;;;;;5.43;4.72;;;8.60;99.90;;;9.31;86.64;97883.69;10486872;28;20225;-66
2023/12/30 16:32:19;;;;;;;4.82;4.45;;;8.50;99.90;;;9.19;88.08;97883.81;10469732;28;20261;-66
2023/12/30 16:37:24;;;;;;;4.53;4.15;;;8.40;99.90;;;9.13;89.05;97876.66;10483335;28;20323;-66
2023/12/30 16:42:29;;;;;;;4.75;4.35;;;8.30;99.90;;;9.09;89.43;97887.44;10464043;28;20256;-66
2023/12/30 16:47:34;;;;;;;2.90;2.60;;;8.20;99.90;;;8.94;89.94;97876.28;10459330;28;20225;-67
2023/12/30 16:52:40;;;;;;;4.25;3.25;;;8.20;99.90;;;9.07;89.68;97872.81;10456279;28;20244;-65
2023/12/30 16:57:44;;;;;;;4.47;4.07;;;8.20;99.90;;;8.87;90.90;97874.13;10450419;28;20236;-65
2023/12/30 17:02:48;;;;;;;4.95;4.55;;;8.10;99.90;;;8.77;90.31;97870.13;10466823;28;20244;-65
2023/12/30 17:07:53;;;;;;;5.43;4.20;;;8.00;99.90;;;8.62;91.03;97876.78;10474966;28;20232;-66
2023/12/30 17:12:56;;;;;;;4.30;3.90;;;7.90;99.90;;;8.62;91.25;97869.13;10451018;28;20229;-65
2023/12/30 17:17:59;;;;;;;4.00;3.60;;;7.90;99.90;;;8.53;91.10;97867.75;10483352;28;20711;-67
2023/12/30 17:23:07;;;;;;;7.80;6.97;;;7.80;99.90;;;8.44;91.60;97862.06;10487406;28;20216;-66
2023/12/30 17:28:10;;;;;;;7.68;6.97;;;7.70;99.90;;;8.39;91.39;97870.19;10455099;28;20259;-67
2023/12/30 17:33:13;;;;;;;5.53;4.90;;;7.60;99.90;;;8.23;92.70;97868.25;10466200;28;20247;-65
2023/12/30 17:38:18;;;;;;;4.27;3.77;;;7.40;99.90;;;8.07;93.02;97872.34;10471641;28;20224;-66
2023/12/30 17:43:21;;;;;;;3.93;3.53;;;7.30;99.90;;;7.95;93.45;97858.78;10461821;28;20249;-65
2023/12/30 17:48:24;;;;;;;4.80;4.40;;;7.10;99.90;;;7.87;93.55;97852.31;10486075;28;20229;-65
2023/12/30 17:53:31;;;;;;;9.70;8.80;;;7.00;99.90;;;7.83;94.84;97857.97;10455040;28;20220;-66
2023/12/30 17:58:34;;;;;;;7.63;4.60;;;7.00;99.90;;;7.75;95.15;97854.00;10490966;28;20801;-67
2023/12/30 18:03:37;;;;;;;7.77;6.37;;;7.00;99.90;;;7.79;95.62;97844.16;10444610;28;20274;-65
2023/12/30 18:08:41;;;;;;;8.33;7.60;;;7.00;99.90;;;7.71;95.75;97847.84;10493384;28;20231;-64
2023/12/30 18:13:44;;;;;;;5.97;5.40;;;7.00;99.90;;;7.66;95.74;97839.88;10497142;28;20597;-66
2023/12/30 18:18:48;;;;;;;5.80;5.23;;;6.90;99.90;;;7.61;95.76;97830.16;10464893;28;20232;-66
2023/12/30 18:23:52;;;;;;;4.67;4.27;;;6.90;99.90;;;7.50;96.04;97837.09;10494942;28;20289;-65
2023/12/30 18:28:55;;;;;;;5.40;4.90;;;6.80;99.90;;;7.44;96.10;97841.78;10497485;28;20255;-65
2023/12/30 18:33:58;;;;;;;4.53;4.07;;;6.70;99.90;;;7.31;96.23;97836.59;10503809;28;20311;-64
2023/12/30 18:39:04;;;;;;;4.20;3.73;;;6.60;99.90;;;7.27;96.71;97829.53;10462249;28;20605;-65
2023/12/30 18:44:07;;;;;;;4.30;4.00;;;6.50;99.90;;;7.14;96.33;97830.34;10445942;28;20288;-65
2023/12/30 18:49:11;;;;;;;9.07;7.43;;;6.30;99.90;;;6.98;97.10;97825.84;10477073;28;20308;-65
2023/12/30 18:54:16;;;;;;;8.20;6.77;;;6.20;99.90;;;6.94;96.58;97826.41;10469482;28;20232;-65
2023/12/30 18:59:19;;;;;;;5.97;5.47;;;6.10;99.90;;;6.86;96.61;97832.59;10478217;28;20285;-65
2023/12/30 19:04:22;;;;;;;5.17;4.67;;;6.00;99.90;;;6.84;97.04;97827.44;10491139;28;20693;-65
2023/12/30 19:09:27;;;;;;;7.37;6.67;;;6.00;99.90;;;6.77;98.18;97826.09;10470230;28;20236;-65
2023/12/30 19:14:30;;;;;;;8.37;7.00;;;6.00;99.90;;;6.74;99.37;97810.63;10442208;28;20223;-64
2023/12/30 19:19:33;;;;;;;7.50;6.80;;;6.00;99.90;;;6.71;98.66;97812.09;10462949;28;20229;-65
2023/12/30 19:24:38;;;;;;;6.07;5.47;;;6.00;99.90;;;6.59;98.93;97801.94;10419012;28;21034;-64
2023/12/30 19:29:41;;;;;;;7.13;6.43;;;5.90;99.90;;;6.51;99.39;97797.97;10478498;28;20685;-65
2023/12/30 19:34:44;;;;;;;6.30;5.53;;;5.80;99.90;;;6.43;98.91;97794.88;10412816;28;20328;-65
2023/12/30 19:39:49;;;;;;;5.13;4.63;;;5.70;99.90;;;6.24;99.24;97791.81;10467616;28;20285;-65
2023/12/30 19:44:52;;;;;;;4.27;3.87;;;5.50;99.90;;;6.21;99.41;97791.56;10495137;28;20241;-67
2023/12/30 19:49:56;;;;;;;4.83;4.33;;;5.50;99.90;;;6.17;99.15;97793.00;10480330;28;20679;-66
2023/12/30 19:55:02;;;;;;;4.70;4.30;;;5.40;99.90;;;6.09;99.62;97784.84;10494256;28;20863;-66
2023/12/30 20:00:08;;;;;;;6.47;4.20;;;5.30;99.90;;;5.96;99.97;97783.84;10486713;28;21832;-66
2023/12/30 20:05:12;;;;;;;4.90;4.10;;;5.20;99.90;;;5.79;100.00;97780.91;10491994;28;20319;-66
2023/12/30 20:10:19;;;;;;;8.47;7.37;;;5.00;99.90;;;5.74;100.00;97772.06;10487346;28;20239;-65
2023/12/30 20:15:22;;;;;;;8.80;7.83;;;5.00;99.90;;;5.68;100.00;97771.63;10486357;28;20640;-66
2023/12/30 20:20:25;;;;;;;8.47;7.63;;;4.90;99.90;;;5.56;100.00;97773.25;10467966;28;20246;-66
2023/12/30 20:25:31;;;;;;;6.83;5.93;;;4.80;99.90;;;5.52;100.00;97768.69;10492580;28;20318;-67
2023/12/30 20:30:34;;;;;;;7.40;6.20;;;4.70;99.90;;;5.46;100.00;97763.16;10478881;28;20225;-66
2023/12/30 20:35:38;;;;;;;6.10;5.50;;;4.60;99.90;;;5.46;100.00;97753.91;10416642;28;20232;-67
2023/12/30 20:40:42;;;;;;;5.73;5.27;;;4.60;99.90;;;5.34;100.00;97743.75;10473542;28;21047;-66
2023/12/30 20:45:49;;;;;;;6.33;5.77;;;4.50;99.90;;;5.23;100.00;97739.50;10478345;28;20220;-65
2023/12/30 20:50:52;;;;;;;8.30;7.50;;;4.40;99.90;;;5.10;100.00;97737.72;10491180;28;20230;-66
2023/12/30 20:55:57;;;;;;;9.83;8.97;;;4.30;99.90;;;5.07;100.00;97736.59;10487925;28;20232;-67
2023/12/30 21:01:00;;;;;;;11.00;9.97;;;4.40;99.90;;;4.93;100.00;97736.44;10470186;28;20533;-68
2023/12/30 21:06:04;;;;;;;12.00;10.77;;;4.30;99.90;;;5.01;100.00;97731.97;10471305;28;20231;-65
2023/12/30 21:11:08;;;;;;;16.43;11.23;;;4.30;99.90;;;5.00;100.00;97735.25;10495210;28;20220;-64
2023/12/30 21:16:17;;;;;;;9.70;8.70;;;4.40;99.90;;;4.98;100.00;97721.59;10488946;28;20226;-66
2023/12/30 21:21:20;;;;;;;8.70;7.17;;;4.30;99.90;;;4.95;100.00;97717.19;10486178;28;20254;-64